Time;durP1;ratioP1;P1;durP2;ratioP2;P2;SDS_P1;SDS_P2;PMS_P1;PMS_P2;Temp;Humidity;BMP_temperature;BMP_pressure;BME280_temperature;BME280_humidity;BME280_pressure;Samples;Min_cycle;Max_cycle;Signal;HPM_P1;HPM_P2
2021/07/25 00:00:49;;;;;;;31.97;14.75;;;;;;;22.40;70.47;101536.47;1775848;80;21177;-69
2021/07/25 00:03:21;;;;;;;36.50;16.37;;;;;;;22.34;70.50;101534.92;1775021;81;21229;-83
2021/07/25 00:05:54;;;;;;;33.28;12.75;;;;;;;22.32;70.62;101528.75;1775936;79;21170;-81
2021/07/25 00:08:27;;;;;;;32.35;13.40;;;;;;;22.30;70.16;101536.73;1775237;81;21363;-75
2021/07/25 00:11:00;;;;;;;34.83;13.37;;;;;;;22.24;70.00;101534.58;1776191;79;21179;-71
2021/07/25 00:13:36;;;;;;;;;;;;;;;22.20;69.97;101536.35;1767628;81;21305;-71
2021/07/25 00:16:08;;;;;;;32.05;14.10;;;;;;;22.17;69.92;101536.16;1764382;81;20255;-69
2021/07/25 00:18:43;;;;;;;37.10;12.88;;;;;;;22.14;70.03;101529.73;1761923;80;21220;-81
2021/07/25 00:21:18;;;;;;;26.07;12.03;;;;;;;22.10;70.10;101532.92;1764220;81;21893;-79
2021/07/25 00:23:53;;;;;;;27.37;10.88;;;;;;;22.04;70.18;101523.72;1764220;80;21363;-69
2021/07/25 00:26:26;;;;;;;27.20;10.18;;;;;;;21.98;70.25;101522.15;1763963;81;21307;-78
2021/07/25 00:29:15;;;;;;;24.57;10.08;;;;;;;21.93;70.28;101521.41;1687405;84;21352;-74
2021/07/25 00:31:48;;;;;;;26.12;10.78;;;;;;;21.92;70.26;101528.22;1690740;83;21331;-70
2021/07/25 00:34:21;;;;;;;26.60;9.23;;;;;;;21.95;70.16;101529.02;1688873;84;21814;-71
2021/07/25 00:36:54;;;;;;;28.67;8.43;;;;;;;21.94;70.13;101523.11;1691011;84;21491;-84
2021/07/25 00:39:27;;;;;;;42.67;10.13;;;;;;;21.98;70.22;101523.56;1673888;85;21404;-83
2021/07/25 00:42:00;;;;;;;21.57;10.05;;;;;;;22.00;69.77;101527.50;1673535;85;21416;-82
2021/07/25 00:44:33;;;;;;;31.20;9.95;;;;;;;21.96;69.50;101528.72;1688949;84;21240;-83
2021/07/25 00:47:06;;;;;;;33.05;10.30;;;;;;;21.94;69.53;101523.92;1689508;83;21247;-69
2021/07/25 00:49:38;;;;;;;44.25;9.80;;;;;;;21.97;69.67;101525.28;1688599;85;21736;-72
2021/07/25 00:52:10;;;;;;;28.62;8.90;;;;;;;21.97;69.61;101527.55;1690648;83;21176;-77
2021/07/25 00:54:43;;;;;;;29.18;10.35;;;;;;;21.95;69.58;101518.52;1688848;85;21200;-80
2021/07/25 00:57:16;;;;;;;28.17;9.53;;;;;;;22.00;69.39;101527.50;1688680;85;21290;-69
2021/07/25 00:59:48;;;;;;;39.33;10.05;;;;;;;22.00;69.12;101526.09;1688877;85;21448;-70
2021/07/25 01:02:20;;;;;;;27.35;9.30;;;;;;;22.00;69.01;101531.15;1688518;85;21267;-67
2021/07/25 01:05:01;;;;;;;40.73;10.15;;;;;;;22.02;69.25;101527.45;1688614;85;21735;-71
2021/07/25 01:07:38;;;;;;;29.60;9.98;;;;;;;22.07;69.22;101529.32;1688719;85;21216;-84
2021/07/25 01:10:20;;;;;;;32.23;10.55;;;;;;;22.06;68.77;101527.66;1686100;85;21799;-76
2021/07/25 01:13:11;;;;;;;25.88;9.55;;;;;;;22.03;68.59;101529.13;1688517;85;21256;-69
2021/07/25 01:15:45;;;;;;;27.90;8.90;;;;;;;22.04;68.42;101534.19;1688764;85;21258;-84
2021/07/25 01:18:20;;;;;;;26.82;10.03;;;;;;;22.07;68.56;101540.64;1688635;85;21220;-69
2021/07/25 01:20:54;;;;;;;39.88;9.58;;;;;;;22.07;69.09;101536.40;1688574;85;21251;-84
2021/07/25 01:23:26;;;;;;;26.80;9.38;;;;;;;22.06;69.21;101540.38;1688705;85;21215;-70
2021/07/25 01:26:00;;;;;;;28.65;9.30;;;;;;;22.10;69.34;101538.58;1688732;85;21243;-68
2021/07/25 01:28:34;;;;;;;27.77;9.45;;;;;;;22.12;69.46;101534.87;1695537;83;21728;-86
2021/07/25 01:31:18;;;;;;;38.28;9.98;;;;;;;22.12;69.54;101537.11;1718893;79;21285;-71
2021/07/25 01:33:50;;;;;;;47.48;10.05;;;;;;;22.14;69.59;101535.39;1790611;80;21179;-71
2021/07/25 01:36:23;;;;;;;43.08;9.88;;;;;;;22.13;69.72;101543.62;1783768;80;21187;-71
2021/07/25 01:38:55;;;;;;;35.55;9.05;;;;;;;22.09;69.77;101546.25;1778528;80;21749;-72
2021/07/25 01:41:28;;;;;;;29.37;9.43;;;;;;;22.09;69.92;101549.64;1758835;80;21325;-75
2021/07/25 01:44:01;;;;;;;25.12;9.40;;;;;;;22.07;70.07;101547.72;1780042;80;21230;-73
2021/07/25 01:46:33;;;;;;;31.73;8.93;;;;;;;22.08;70.00;101559.29;1778306;80;21192;-74
2021/07/25 01:49:07;;;;;;;27.32;9.43;;;;;;;22.04;69.94;101564.74;1779991;80;21321;-74
2021/07/25 01:51:39;;;;;;;29.35;8.20;;;;;;;22.04;69.20;101559.08;1780245;80;21329;-70
2021/07/25 01:54:12;;;;;;;21.68;8.08;;;;;;;22.04;69.16;101561.06;1779994;80;21180;-71
2021/07/25 01:56:45;;;;;;;32.50;9.13;;;;;;;21.98;68.62;101567.98;1780093;79;21855;-72
2021/07/25 01:59:17;;;;;;;32.70;9.05;;;;;;;21.92;68.41;101567.83;1779924;80;21325;-72
2021/07/25 02:01:50;;;;;;;23.30;7.22;;;;;;;21.88;68.29;101569.63;1780012;80;21317;-73
2021/07/25 02:04:24;;;;;;;27.67;8.63;;;;;;;21.88;68.60;101572.45;1780131;80;21333;-74
2021/07/25 02:06:57;;;;;;;34.45;7.67;;;;;;;21.89;68.49;101568.47;1755548;78;21412;-83
2021/07/25 02:09:29;;;;;;;22.45;8.13;;;;;;;21.89;68.22;101574.12;1737189;82;21846;-87
2021/07/25 02:12:04;;;;;;;20.55;8.30;;;;;;;21.87;68.03;101577.83;1732139;82;21829;-72
2021/07/25 02:14:38;;;;;;;16.85;7.72;;;;;;;21.83;68.41;101569.13;1711559;84;21194;-79
2021/07/25 02:17:11;;;;;;;21.75;8.30;;;;;;;21.86;68.72;101569.94;1682763;85;21230;-69
2021/07/25 02:19:43;;;;;;;25.60;9.05;;;;;;;21.90;68.51;101578.63;1715131;82;21286;-68
2021/07/25 02:22:16;;;;;;;21.02;8.85;;;;;;;21.88;68.19;101576.10;1685203;84;21885;-85
2021/07/25 02:24:49;;;;;;;30.05;9.75;;;;;;;21.80;68.22;101578.82;1713953;84;21348;-89
2021/07/25 02:27:22;;;;;;;34.88;9.83;;;;;;;21.73;68.21;101577.84;1682030;85;21210;-82
2021/07/25 02:29:54;;;;;;;28.83;7.83;;;;;;;21.69;68.19;101582.44;1711970;84;21344;-85
2021/07/25 02:32:27;;;;;;;24.52;7.80;;;;;;;21.60;68.34;101577.78;1681877;85;21222;-82
2021/07/25 02:35:02;;;;;;;21.33;8.73;;;;;;;21.53;68.76;101583.83;1711720;84;21320;-69
2021/07/25 02:37:34;;;;;;;32.75;9.85;;;;;;;21.48;69.14;101583.10;1684978;84;21333;-68
2021/07/25 02:40:08;;;;;;;20.15;8.60;;;;;;;21.45;69.44;101592.22;1676614;85;21376;-69
2021/07/25 02:42:42;;;;;;;22.75;8.30;;;;;;;21.43;69.51;101593.08;1676395;85;21361;-79
2021/07/25 02:45:15;;;;;;;19.90;7.85;;;;;;;21.44;69.51;101593.34;1691368;84;21758;-74
2021/07/25 02:47:48;;;;;;;;;;;;;;;21.44;69.48;101593.34;1665948;86;21340;-77
2021/07/25 02:50:20;;;;;;;22.65;8.63;;;;;;;21.45;69.38;101596.46;1701065;83;20256;-69
2021/07/25 02:52:54;;;;;;;32.23;8.75;;;;;;;21.44;69.41;101597.58;1702016;83;21183;-78
2021/07/25 02:55:28;;;;;;;23.75;8.98;;;;;;;21.44;69.39;101594.75;1704323;83;21416;-75
2021/07/25 02:58:00;;;;;;;30.25;9.08;;;;;;;21.46;69.41;101598.13;1702817;83;21852;-80
2021/07/25 03:00:33;;;;;;;29.02;8.60;;;;;;;21.46;69.36;101598.13;1698034;83;21208;-70
2021/07/25 03:03:06;;;;;;;16.80;9.37;;;;;;;21.45;69.37;101601.52;1705869;84;21938;-75
2021/07/25 03:05:39;;;;;;;20.50;9.43;;;;;;;21.46;69.41;101600.96;1698852;80;21676;-70
2021/07/25 03:08:11;;;;;;;25.17;9.93;;;;;;;21.46;69.49;101599.55;1703927;84;21358;-70
2021/07/25 03:10:45;;;;;;;19.12;9.50;;;;;;;21.49;69.49;101604.00;1730891;82;21764;-78
2021/07/25 03:13:17;;;;;;;21.27;10.78;;;;;;;21.55;69.22;101604.73;1737126;82;21388;-70
2021/07/25 03:15:51;;;;;;;19.80;8.28;;;;;;;21.58;69.11;101608.38;1736689;82;21179;-72
2021/07/25 03:18:24;;;;;;;23.30;9.75;;;;;;;21.58;68.88;101609.78;1733917;82;21332;-69
2021/07/25 03:20:57;;;;;;;22.15;8.73;;;;;;;21.60;68.78;101613.13;1705962;83;21254;-71
2021/07/25 03:23:30;;;;;;;19.77;9.60;;;;;;;21.62;68.79;101616.47;1705566;84;21482;-70
2021/07/25 03:26:02;;;;;;;16.30;8.30;;;;;;;21.66;68.68;101621.22;1705603;84;21191;-77
2021/07/25 03:28:35;;;;;;;22.95;9.05;;;;;;;21.71;68.61;101619.72;1705636;84;21337;-74
2021/07/25 03:31:08;;;;;;;18.17;9.35;;;;;;;21.76;68.45;101624.45;1706751;84;21340;-75
2021/07/25 03:33:40;;;;;;;17.73;9.43;;;;;;;21.77;68.34;101626.95;1711366;84;21320;-72
2021/07/25 03:36:14;;;;;;;19.27;8.53;;;;;;;21.78;68.34;101631.48;1711321;84;21331;-77
2021/07/25 03:38:47;;;;;;;19.27;8.53;;;;;;;21.83;68.33;101624.88;1711532;84;21423;-78
2021/07/25 03:41:19;;;;;;;33.10;9.65;;;;;;;21.93;68.23;101621.83;1737355;80;21339;-70
2021/07/25 03:43:52;;;;;;;18.62;9.10;;;;;;;22.03;67.79;101630.13;1743446;82;21185;-71
2021/07/25 03:46:24;;;;;;;25.47;8.97;;;;;;;22.05;67.44;101634.88;1743733;81;21189;-71
2021/07/25 03:48:57;;;;;;;28.30;9.57;;;;;;;22.06;67.32;101633.16;1741541;82;21807;-71
2021/07/25 03:51:31;;;;;;;22.37;9.93;;;;;;;22.10;67.36;101640.45;1741762;82;21186;-71
2021/07/25 03:54:06;;;;;;;22.50;8.75;;;;;;;22.11;67.14;101635.89;1715876;82;21332;-72
2021/07/25 03:56:39;;;;;;;30.68;9.05;;;;;;;22.12;67.00;101633.33;1741734;82;21275;-70
2021/07/25 03:59:13;;;;;;;24.77;8.60;;;;;;;22.17;67.12;101647.37;1715689;82;21210;-71
2021/07/25 04:01:47;;;;;;;26.60;8.08;;;;;;;22.25;66.91;101645.81;1742023;82;21194;-70
2021/07/25 04:04:19;;;;;;;;;;;;;;;22.31;66.64;101650.21;1744524;82;21838;-74
2021/07/25 04:06:51;;;;;;;24.72;8.93;;;;;;;22.34;66.59;101646.17;1741751;82;20197;-72
2021/07/25 04:09:23;;;;;;;25.10;9.20;;;;;;;22.37;66.77;101650.37;1752095;78;21362;-73
2021/07/25 04:11:56;;;;;;;20.55;8.23;;;;;;;22.46;66.64;101652.73;1775752;80;21316;-69
2021/07/25 04:14:29;;;;;;;28.95;9.00;;;;;;;22.53;66.54;101655.98;1747426;82;21889;-71
2021/07/25 04:17:02;;;;;;;20.00;9.25;;;;;;;22.63;65.86;101658.59;1775152;80;21833;-78
2021/07/25 04:19:34;;;;;;;23.35;9.30;;;;;;;22.74;65.56;101652.97;1742145;82;21238;-71
2021/07/25 04:22:07;;;;;;;23.18;9.55;;;;;;;22.86;64.96;101654.67;1780031;80;21181;-68
2021/07/25 04:24:39;;;;;;;20.68;9.68;;;;;;;22.99;64.43;101655.20;1775252;79;21307;-75
2021/07/25 04:27:13;;;;;;;21.68;9.78;;;;;;;23.12;64.28;101654.31;1745749;81;21225;-76
2021/07/25 04:29:48;;;;;;;20.88;10.45;;;;;;;23.26;64.23;101660.80;1775195;80;21225;-78
2021/07/25 04:32:22;;;;;;;25.48;10.63;;;;;;;23.41;64.25;101652.73;1742476;81;21380;-69
2021/07/25 04:34:55;;;;;;;22.27;9.43;;;;;;;23.61;64.08;101648.55;1773115;81;21838;-69
2021/07/25 04:37:29;;;;;;;20.52;9.20;;;;;;;23.97;63.47;101652.12;1772324;80;21318;-68
2021/07/25 04:40:05;;;;;;;23.73;9.23;;;;;;;24.38;62.49;101650.62;1722944;83;21386;-71
2021/07/25 04:42:38;;;;;;;18.50;10.03;;;;;;;24.82;61.61;101662.39;1764984;80;21157;-79
2021/07/25 04:45:11;;;;;;;23.87;9.90;;;;;;;25.25;60.07;101656.17;1773639;80;21158;-69
2021/07/25 04:47:51;;;;;;;21.50;9.35;;;;;;;25.74;58.44;101648.48;1779808;80;21330;-78
2021/07/25 04:50:27;;;;;;;25.52;9.08;;;;;;;26.20;57.08;101655.67;1780063;80;21339;-70
2021/07/25 04:53:02;;;;;;;24.12;9.40;;;;;;;26.59;55.45;101651.05;1780153;80;21234;-76
2021/07/25 04:55:36;;;;;;;20.80;8.83;;;;;;;27.01;54.00;101660.72;1774952;80;21336;-67
2021/07/25 04:58:09;;;;;;;26.90;10.60;;;;;;;27.38;52.62;101649.20;1749210;82;21778;-69
2021/07/25 05:00:43;;;;;;;26.68;10.68;;;;;;;27.74;51.45;101651.34;1749265;82;21783;-78
2021/07/25 05:03:17;;;;;;;19.55;10.23;;;;;;;28.07;51.36;101652.20;1749173;81;21177;-77
2021/07/25 05:05:51;;;;;;;24.37;12.07;;;;;;;28.44;51.52;101656.17;1749341;82;21188;-78
2021/07/25 05:08:24;;;;;;;31.23;14.53;;;;;;;28.79;49.78;101657.36;1749549;81;21173;-69
2021/07/25 05:11:03;;;;;;;30.65;12.18;;;;;;;29.02;48.72;101655.69;1747450;82;21330;-74
2021/07/25 05:13:37;;;;;;;26.35;12.15;;;;;;;29.25;48.60;101655.39;1756141;80;21182;-78
2021/07/25 05:16:09;;;;;;;31.35;14.30;;;;;;;29.53;48.12;101651.96;1775091;81;21765;-69
2021/07/25 05:18:46;;;;;;;26.17;11.20;;;;;;;29.80;47.40;101661.16;1775258;81;21185;-70
2021/07/25 05:21:23;;;;;;;25.75;11.22;;;;;;;30.02;46.05;101653.36;1772801;81;21702;-78
2021/07/25 05:23:59;;;;;;;33.02;10.80;;;;;;;30.27;46.18;101657.75;1775057;81;21189;-68
2021/07/25 05:26:33;;;;;;;27.90;12.15;;;;;;;30.51;45.13;101644.66;1775032;80;21169;-71
2021/07/25 05:29:05;;;;;;;22.42;10.03;;;;;;;30.75;45.30;101658.82;1775305;80;21209;-69
2021/07/25 05:31:38;;;;;;;23.92;10.53;;;;;;;30.86;45.06;101661.97;1772072;81;21170;-79
2021/07/25 05:34:11;;;;;;;29.60;10.72;;;;;;;30.94;45.12;101666.66;1765918;81;21826;-70
2021/07/25 05:36:44;;;;;;;30.62;10.48;;;;;;;31.00;44.25;101664.55;1765744;81;21211;-77
2021/07/25 05:39:17;;;;;;;32.15;10.78;;;;;;;31.08;43.63;101666.40;1756224;77;21348;-75
2021/07/25 05:41:50;;;;;;;35.73;11.53;;;;;;;31.18;43.28;101664.38;1657101;86;21246;-73
2021/07/25 05:44:23;;;;;;;21.17;9.28;;;;;;;31.19;42.38;101667.52;1645968;84;21913;-73
2021/07/25 05:46:55;;;;;;;16.32;7.78;;;;;;;31.11;42.91;101661.32;1634392;86;21278;-78
2021/07/25 05:49:30;;;;;;;25.25;8.30;;;;;;;31.09;43.26;101668.05;1634135;88;21366;-77
2021/07/25 05:52:03;;;;;;;14.85;8.08;;;;;;;31.07;42.59;101668.20;1634256;88;21475;-74
2021/07/25 05:54:36;;;;;;;21.23;8.40;;;;;;;31.07;43.31;101669.05;1634115;88;21214;-77
2021/07/25 05:57:10;;;;;;;15.25;8.18;;;;;;;31.24;42.24;101667.81;1634351;86;21904;-77
2021/07/25 05:59:43;;;;;;;18.80;8.50;;;;;;;31.41;42.49;101671.06;1649368;84;21329;-71
2021/07/25 06:02:15;;;;;;;23.40;9.10;;;;;;;31.60;42.18;101668.81;1743390;82;21767;-72
2021/07/25 06:04:48;;;;;;;19.35;8.83;;;;;;;31.66;41.50;101675.92;1746758;82;21336;-72
2021/07/25 06:07:21;;;;;;;16.35;7.97;;;;;;;31.70;40.80;101676.21;1747058;82;21328;-70
2021/07/25 06:09:53;;;;;;;18.70;7.75;;;;;;;31.83;41.67;101676.30;1735402;82;21323;-71
2021/07/25 06:12:26;;;;;;;25.88;8.10;;;;;;;32.03;41.72;101677.11;1717074;83;21165;-80
2021/07/25 06:14:58;;;;;;;15.15;8.58;;;;;;;32.06;41.10;101675.74;1717235;83;21324;-70
2021/07/25 06:17:34;;;;;;;20.15;8.03;;;;;;;32.04;40.08;101671.58;1717116;83;21192;-78
2021/07/25 06:20:07;;;;;;;19.32;8.20;;;;;;;32.02;40.36;101673.39;1717300;83;21324;-70
2021/07/25 06:22:51;;;;;;;26.68;8.78;;;;;;;32.03;39.96;101673.61;1730909;78;21192;-71
2021/07/25 06:25:30;;;;;;;14.25;8.23;;;;;;;31.95;40.33;101674.70;1730115;82;21360;-71
2021/07/25 06:28:05;;;;;;;17.27;7.25;;;;;;;31.93;40.27;101674.26;1794991;79;21222;-71
2021/07/25 06:30:37;;;;;;;18.20;6.87;;;;;;;32.00;39.73;101677.27;1794854;80;21329;-72
2021/07/25 06:33:10;;;;;;;20.50;7.28;;;;;;;31.95;40.40;101676.13;1730985;82;21368;-71
2021/07/25 06:35:44;;;;;;;20.00;7.08;;;;;;;31.93;41.10;101680.01;1768394;80;21180;-71
2021/07/25 06:38:20;;;;;;;18.27;8.10;;;;;;;32.00;40.45;101683.02;1783822;79;21214;-71
2021/07/25 06:40:58;;;;;;;22.15;7.78;;;;;;;32.17;39.11;101685.41;1698298;84;21321;-72
2021/07/25 06:43:30;;;;;;;12.10;6.25;;;;;;;32.29;39.61;101675.19;1730580;82;21313;-72
2021/07/25 06:46:04;;;;;;;16.37;6.80;;;;;;;32.40;39.67;101674.75;1753750;81;21348;-77
2021/07/25 06:48:37;;;;;;;13.58;7.08;;;;;;;32.49;39.48;101671.61;1767024;80;21349;-72
2021/07/25 06:51:10;;;;;;;16.05;6.95;;;;;;;32.59;39.30;101671.82;1685521;84;21258;-71
2021/07/25 06:53:43;;;;;;;19.67;7.42;;;;;;;32.64;38.75;101662.83;1761741;80;21170;-79
2021/07/25 06:56:17;;;;;;;18.92;6.05;;;;;;;32.75;39.08;101668.79;1761554;81;21326;-75
2021/07/25 06:58:51;;;;;;;13.55;6.87;;;;;;;32.97;38.55;101670.20;1761715;81;21856;-70
2021/07/25 07:01:28;;;;;;;10.35;6.28;;;;;;;33.07;38.06;101671.58;1773942;80;21186;-71
2021/07/25 07:03:59;;;;;;;11.97;6.10;;;;;;;33.10;37.38;101673.07;1787834;80;21325;-72
2021/07/25 07:06:32;;;;;;;17.15;6.03;;;;;;;33.08;37.26;101671.20;1787966;80;21170;-77
2021/07/25 07:09:05;;;;;;;10.05;6.72;;;;;;;33.09;38.27;101669.97;1777345;78;21324;-71
2021/07/25 07:11:37;;;;;;;17.45;6.78;;;;;;;33.18;38.21;101680.59;1764626;81;21320;-71
2021/07/25 07:14:10;;;;;;;18.25;6.83;;;;;;;33.26;37.18;101679.52;1748075;81;21183;-71
2021/07/25 07:16:44;;;;;;;15.78;7.62;;;;;;;33.29;37.69;101683.64;1762771;81;21695;-73
2021/07/25 07:19:17;;;;;;;19.20;7.78;;;;;;;33.33;37.77;101680.22;1763366;81;21186;-72
2021/07/25 07:21:51;;;;;;;13.62;6.55;;;;;;;33.39;38.34;101685.86;1733121;81;21706;-71
2021/07/25 07:24:24;;;;;;;9.23;5.50;;;;;;;33.42;38.22;101688.79;1732963;83;21480;-75
2021/07/25 07:26:56;;;;;;;13.90;6.70;;;;;;;33.44;37.22;101694.16;1733189;83;21445;-72
2021/07/25 07:29:32;;;;;;;13.25;7.47;;;;;;;33.48;37.92;101691.55;1697996;84;21333;-71
2021/07/25 07:32:07;;;;;;;17.67;7.00;;;;;;;33.48;37.58;101689.30;1675938;85;21198;-70
2021/07/25 07:34:41;;;;;;;15.83;6.50;;;;;;;33.37;36.80;101692.63;1668305;86;21203;-71
2021/07/25 07:37:16;;;;;;;12.50;5.20;;;;;;;33.23;38.36;101687.45;1733355;81;22412;-80
2021/07/25 07:39:48;;;;;;;12.90;5.67;;;;;;;33.17;36.63;101690.45;1697827;84;21329;-83
2021/07/25 07:42:22;;;;;;;13.62;6.10;;;;;;;33.06;37.69;101686.58;1675909;85;21742;-71
2021/07/25 07:44:55;;;;;;;11.83;5.47;;;;;;;33.14;38.82;101692.69;1668387;86;21748;-82
2021/07/25 07:47:28;;;;;;;13.70;5.65;;;;;;;33.24;36.87;101689.74;1733876;81;21329;-77
2021/07/25 07:50:02;;;;;;;13.00;4.83;;;;;;;33.25;37.15;101691.39;1763294;81;21831;-84
2021/07/25 07:52:36;;;;;;;18.37;5.12;;;;;;;33.15;36.67;101693.50;1763314;81;21553;-73
2021/07/25 07:55:10;;;;;;;11.85;5.42;;;;;;;32.82;36.10;101688.45;1763314;81;21218;-74
2021/07/25 07:57:44;;;;;;;11.78;5.50;;;;;;;32.41;36.24;101688.54;1763338;81;21360;-76
2021/07/25 08:00:16;;;;;;;10.43;4.75;;;;;;;32.18;37.32;101695.70;1763414;81;21368;-77
2021/07/25 08:02:49;;;;;;;7.53;4.72;;;;;;;32.01;36.54;101698.21;1756830;81;21376;-73
2021/07/25 08:05:22;;;;;;;18.85;5.55;;;;;;;31.85;37.33;101697.49;1753013;80;21331;-77
2021/07/25 08:07:55;;;;;;;10.75;5.75;;;;;;;31.76;38.37;101696.88;1753639;81;21666;-72
2021/07/25 08:10:27;;;;;;;13.78;6.00;;;;;;;31.65;39.60;101695.81;1766940;80;21706;-74
2021/07/25 08:13:06;;;;;;;8.03;4.65;;;;;;;31.52;38.46;101705.77;1768215;81;21325;-75
2021/07/25 08:15:39;;;;;;;11.68;4.92;;;;;;;31.40;38.08;101707.34;1762387;81;21184;-78
2021/07/25 08:18:14;;;;;;;10.40;5.75;;;;;;;31.30;37.34;101708.77;1759330;81;21205;-75
2021/07/25 08:20:47;;;;;;;16.07;5.67;;;;;;;31.14;37.64;101705.09;1759836;81;21837;-71
2021/07/25 08:23:21;;;;;;;;;;;;;;;31.03;36.95;101706.88;1776165;80;21312;-72
2021/07/25 08:25:53;;;;;;;17.70;6.37;;;;;;;30.96;37.29;101714.48;1773467;81;20262;-70
2021/07/25 08:28:26;;;;;;;17.23;5.00;;;;;;;30.94;38.21;101708.29;1773347;81;21305;-70
2021/07/25 08:30:59;;;;;;;11.63;4.85;;;;;;;30.82;37.72;101711.27;1773247;81;21166;-69
2021/07/25 08:33:31;;;;;;;;;;;;;;;30.77;37.38;101705.22;1775921;81;21818;-75
2021/07/25 08:36:06;;;;;;;8.38;4.80;;;;;;;30.60;37.24;101701.26;1773112;80;20547;-70
2021/07/25 08:38:38;;;;;;;9.30;4.75;;;;;;;30.52;38.07;101708.03;1773309;80;21335;-72
2021/07/25 08:41:26;;;;;;;8.03;3.50;;;;;;;30.51;37.49;101709.83;1773648;81;21324;-74
2021/07/25 08:44:26;;;;;;;13.18;5.40;;;;;;;30.38;35.25;101706.20;1772091;81;21375;-70
2021/07/25 08:47:00;;;;;;;12.58;4.17;;;;;;;30.20;36.28;101697.72;1773341;81;21323;-71
2021/07/25 08:49:42;;;;;;;8.38;4.28;;;;;;;30.10;35.75;101710.33;1773474;81;21861;-71
2021/07/25 08:52:22;;;;;;;12.13;4.28;;;;;;;30.02;36.13;101708.44;1767317;78;21355;-76
2021/07/25 08:54:57;;;;;;;8.38;4.30;;;;;;;30.01;36.73;101701.86;1745619;81;21679;-70
2021/07/25 08:57:32;;;;;;;11.30;4.35;;;;;;;30.04;36.36;101709.75;1738106;81;21185;-71
2021/07/25 09:00:07;;;;;;;6.72;4.22;;;;;;;29.99;36.82;101702.84;1738131;82;21382;-70
2021/07/25 09:02:40;;;;;;;7.10;4.03;;;;;;;30.07;37.17;101699.58;1738216;82;21339;-70
2021/07/25 09:05:13;;;;;;;9.90;3.47;;;;;;;30.15;36.88;101696.55;1738187;82;21323;-74
2021/07/25 09:07:46;;;;;;;8.88;4.10;;;;;;;30.23;36.14;101692.70;1738169;82;21284;-74
2021/07/25 09:10:22;;;;;;;14.18;4.65;;;;;;;30.25;35.98;101699.50;1738163;82;21328;-75
2021/07/25 09:12:56;;;;;;;15.95;4.72;;;;;;;30.16;35.09;101700.27;1738597;81;21347;-74
2021/07/25 09:15:32;;;;;;;9.55;3.98;;;;;;;30.01;35.28;101694.70;1738419;82;21996;-71
2021/07/25 09:18:05;;;;;;;9.05;4.40;;;;;;;29.99;36.31;101699.98;1738187;82;21340;-77
2021/07/25 09:20:41;;;;;;;;;;;;;;;29.94;35.96;101698.80;1740770;82;21319;-70
2021/07/25 09:23:18;;;;;;;9.28;4.50;;;;;;;29.89;36.18;101694.77;1741927;79;20249;-70
2021/07/25 09:25:55;;;;;;;8.43;4.45;;;;;;;29.85;35.70;101700.17;1743838;81;21194;-70
2021/07/25 09:28:36;;;;;;;13.83;4.40;;;;;;;29.79;35.57;101697.33;1743744;82;21781;-71
2021/07/25 09:31:14;;;;;;;11.48;4.70;;;;;;;29.67;36.00;101693.94;1743953;82;21382;-70
2021/07/25 09:33:47;;;;;;;15.28;4.58;;;;;;;29.63;35.66;101695.85;1743840;81;21232;-71
2021/07/25 09:36:24;;;;;;;16.15;4.65;;;;;;;29.67;36.70;101703.11;1743843;82;21754;-70
2021/07/25 09:38:59;;;;;;;8.65;4.37;;;;;;;29.73;36.83;101695.34;1743960;82;21695;-71
2021/07/25 09:41:33;;;;;;;9.23;4.53;;;;;;;29.80;36.37;101696.97;1743779;81;21264;-69
2021/07/25 09:44:11;;;;;;;14.58;4.60;;;;;;;29.84;37.12;101696.45;1743825;81;21192;-71
2021/07/25 09:46:49;;;;;;;10.00;4.50;;;;;;;29.86;35.87;101705.55;1743891;82;21335;-71
2021/07/25 09:49:23;;;;;;;9.15;4.60;;;;;;;29.80;35.76;101705.57;1743763;82;21201;-69
2021/07/25 09:51:56;;;;;;;9.30;4.37;;;;;;;29.70;36.50;101700.35;1743965;81;21785;-71
2021/07/25 09:54:30;;;;;;;7.83;4.85;;;;;;;29.72;36.08;101702.24;1743397;81;21699;-71
2021/07/25 09:57:12;;;;;;;8.08;4.20;;;;;;;29.71;35.58;101694.85;1709466;82;21208;-72
2021/07/25 09:59:44;;;;;;;11.35;5.15;;;;;;;29.70;36.48;101693.19;1708155;83;21757;-71
2021/07/25 10:02:44;;;;;;;12.75;4.47;;;;;;;29.76;37.29;101693.16;1719768;83;21493;-70
2021/07/25 10:05:25;;;;;;;11.43;4.65;;;;;;;29.86;36.79;101697.53;1661318;83;21249;-70
2021/07/25 10:07:58;;;;;;;6.67;4.60;;;;;;;29.82;36.08;101701.73;1725271;83;21269;-74
2021/07/25 10:10:30;;;;;;;8.73;4.70;;;;;;;29.68;35.31;101697.03;1725774;83;21329;-73
2021/07/25 10:13:03;;;;;;;7.55;4.70;;;;;;;29.58;35.78;101694.67;1678214;83;21344;-71
2021/07/25 10:15:36;;;;;;;19.15;5.20;;;;;;;29.54;35.97;101703.75;1723677;83;21443;-69
2021/07/25 10:18:09;;;;;;;11.65;5.17;;;;;;;29.54;35.93;101707.23;1725617;82;21380;-70
2021/07/25 10:20:41;;;;;;;8.85;6.03;;;;;;;29.43;35.91;101695.42;1725612;83;21246;-72
2021/07/25 10:23:15;;;;;;;8.08;5.50;;;;;;;29.35;35.98;101701.30;1690874;83;21190;-71
2021/07/25 10:25:50;;;;;;;13.75;6.12;;;;;;;29.32;36.08;101698.55;1724312;80;21213;-73
2021/07/25 10:28:23;;;;;;;9.68;5.72;;;;;;;29.37;36.28;101698.89;1722103;83;21247;-71
2021/07/25 10:30:55;;;;;;;10.53;5.55;;;;;;;29.43;36.40;101696.86;1722320;83;21835;-70
2021/07/25 10:33:31;;;;;;;15.25;5.42;;;;;;;29.45;35.98;101685.86;1722001;83;21195;-75
2021/07/25 10:36:06;;;;;;;15.25;4.85;;;;;;;29.47;35.83;101686.94;1722140;83;21366;-72
2021/07/25 10:38:46;;;;;;;12.68;5.92;;;;;;;29.50;36.50;101685.61;1721760;82;21384;-70
2021/07/25 10:41:26;;;;;;;7.35;5.70;;;;;;;29.54;35.97;101705.17;1719426;83;21183;-71
2021/07/25 10:44:03;;;;;;;7.08;4.78;;;;;;;29.47;35.78;101692.05;1677637;83;21393;-73
2021/07/25 10:46:36;;;;;;;11.00;5.08;;;;;;;29.44;35.61;101700.53;1722122;83;21198;-71
2021/07/25 10:49:10;;;;;;;7.03;5.50;;;;;;;29.36;35.04;101697.23;1722140;83;21203;-73
2021/07/25 10:51:59;;;;;;;18.65;5.90;;;;;;;29.29;35.75;101689.23;1722037;83;21199;-71
2021/07/25 10:54:36;;;;;;;11.88;5.95;;;;;;;29.27;36.50;101697.37;1722190;83;21291;-70
2021/07/25 10:57:14;;;;;;;7.85;5.75;;;;;;;29.27;35.77;101691.64;1699570;83;21392;-71
2021/07/25 10:59:57;;;;;;;11.15;5.53;;;;;;;29.28;35.60;101687.58;1716708;83;21177;-70
2021/07/25 11:02:50;;;;;;;8.73;6.20;;;;;;;29.31;35.92;101691.16;1691905;83;21240;-72
2021/07/25 11:05:25;;;;;;;9.58;5.85;;;;;;;29.36;36.88;101693.78;1693508;83;21201;-72
2021/07/25 11:07:59;;;;;;;10.80;5.72;;;;;;;29.44;36.97;101687.65;1678685;84;21194;-72
2021/07/25 11:10:36;;;;;;;7.20;5.30;;;;;;;29.50;36.65;101690.48;1729547;82;21250;-71
2021/07/25 11:13:12;;;;;;;12.15;5.60;;;;;;;29.49;35.99;101688.83;1738781;82;21348;-71
2021/07/25 11:15:46;;;;;;;14.65;6.40;;;;;;;29.49;36.95;101691.11;1743430;82;21317;-69
2021/07/25 11:18:32;;;;;;;15.60;5.83;;;;;;;29.53;37.11;101694.11;1747629;82;21344;-71
2021/07/25 11:21:05;;;;;;;24.10;5.60;;;;;;;29.54;37.37;101695.77;1748020;82;21400;-71
2021/07/25 11:23:38;;;;;;;10.25;5.33;;;;;;;29.56;37.45;101695.64;1747754;82;21369;-69
2021/07/25 11:26:36;;;;;;;12.15;5.20;;;;;;;29.54;35.17;101696.59;1740824;82;21392;-71
2021/07/25 11:29:13;;;;;;;14.18;5.28;;;;;;;29.46;35.38;101690.38;1726285;82;21766;-69
2021/07/25 11:31:49;;;;;;;8.28;5.00;;;;;;;29.43;35.74;101698.88;1787378;78;21245;-71
2021/07/25 11:34:45;;;;;;;9.35;5.70;;;;;;;29.44;34.96;101693.38;1808731;78;21359;-71
2021/07/25 11:37:12;;;;;;;18.45;5.95;;;;;;;29.37;35.51;101691.14;1824667;78;21312;-80
2021/07/25 11:39:47;;;;;;;13.00;6.28;;;;;;;29.33;36.70;101678.74;1794721;78;21321;-74
2021/07/25 11:42:21;;;;;;;21.37;5.53;;;;;;;29.35;36.93;101682.06;1793820;78;21154;-74
2021/07/25 11:44:54;;;;;;;;;;;;;;;29.39;36.53;101680.73;1803133;78;21232;-71
2021/07/25 11:47:29;;;;;;;15.05;5.90;;;;;;;29.41;36.87;101676.94;1808342;79;20325;-71
2021/07/25 11:50:04;;;;;;;16.75;6.58;;;;;;;29.42;36.34;101682.30;1803535;79;21827;-72
2021/07/25 11:52:37;;;;;;;13.32;5.42;;;;;;;29.43;36.22;101684.55;1822925;78;21842;-71